Time;durP1;ratioP1;P1;durP2;ratioP2;P2;SDS_P1;SDS_P2;PMS_P1;PMS_P2;Temp;Humidity;BMP_temperature;BMP_pressure;BME280_temperature;BME280_humidity;BME280_pressure;Samples;Min_cycle;Max_cycle;Signal;HPM_P1;HPM_P2
2021/01/30 05:07:10;;;;;;;11.27;10.87;;;7.90;99.90;;;;;;4895152;23;20491;-75
2021/01/30 05:09:43;;;;;;;10.57;10.20;;;8.00;99.90;;;;;;4882451;29;20500;-75
2021/01/30 05:12:15;;;;;;;11.00;10.60;;;8.00;99.90;;;;;;4878583;29;20874;-75
2021/01/30 05:14:51;;;;;;;10.47;10.17;;;7.90;99.90;;;;;;4878506;29;20978;-73
2021/01/30 05:17:22;;;;;;;11.10;10.70;;;7.90;99.90;;;;;;4878364;29;20799;-75
2021/01/30 05:19:55;;;;;;;11.17;10.67;;;8.00;99.90;;;;;;4878245;29;20935;-76
2021/01/30 05:22:28;;;;;;;11.20;10.70;;;8.00;99.90;;;;;;4878283;29;20460;-75
2021/01/30 05:24:55;;;;;;;11.37;10.77;;;8.00;99.90;;;;;;4878211;29;20512;-75
2021/01/30 05:27:38;;;;;;;11.00;10.60;;;8.00;99.90;;;;;;4878143;29;20456;-76
2021/01/30 05:30:12;;;;;;;10.27;9.97;;;8.00;99.90;;;;;;4878071;29;20772;-75
2021/01/30 05:33:02;;;;;;;10.77;10.37;;;8.00;99.90;;;;;;4878156;29;20461;-76
2021/01/30 05:35:34;;;;;;;10.17;9.87;;;8.10;99.90;;;;;;4884385;29;20459;-75
2021/01/30 05:38:06;;;;;;;10.80;10.30;;;8.00;99.90;;;;;;4892909;29;20452;-76
2021/01/30 05:40:36;;;;;;;10.33;10.03;;;8.00;99.90;;;;;;4895551;29;20447;-76
2021/01/30 05:43:16;;;;;;;11.27;10.53;;;8.00;99.90;;;;;;4893341;29;20454;-76
2021/01/30 05:45:45;;;;;;;10.63;10.23;;;8.00;99.90;;;;;;4893338;29;20448;-74
2021/01/30 05:48:13;;;;;;;11.13;10.20;;;7.90;99.90;;;;;;4895423;29;20481;-76
2021/01/30 05:50:45;;;;;;;11.20;10.27;;;7.90;99.90;;;;;;4895187;29;20495;-76
2021/01/30 05:53:15;;;;;;;10.00;9.70;;;7.90;99.90;;;;;;4895445;29;20507;-76
2021/01/30 05:55:41;;;;;;;11.20;10.60;;;7.80;99.90;;;;;;4895480;29;20455;-76
2021/01/30 05:58:10;;;;;;;10.20;9.70;;;7.80;99.90;;;;;;4895085;29;20459;-75
2021/01/30 06:00:38;;;;;;;10.50;10.10;;;7.80;99.90;;;;;;4895054;29;20454;-73
2021/01/30 06:03:10;;;;;;;10.00;9.60;;;7.80;99.90;;;;;;4895000;29;20455;-74
2021/01/30 06:05:39;;;;;;;10.70;10.10;;;7.80;99.90;;;;;;4876300;29;20479;-76
2021/01/30 06:08:29;;;;;;;10.53;10.13;;;7.70;99.90;;;;;;4890685;29;20479;-74
2021/01/30 06:11:07;;;;;;;11.23;10.40;;;7.70;99.90;;;;;;4893136;29;20570;-75
2021/01/30 06:13:33;;;;;;;10.23;9.83;;;7.70;99.90;;;;;;4892620;29;20985;-76
2021/01/30 06:16:01;;;;;;;9.70;9.40;;;7.70;99.90;;;;;;4894601;29;20509;-75
2021/01/30 06:18:33;;;;;;;9.53;9.20;;;7.70;99.90;;;;;;4894866;29;20451;-73
2021/01/30 06:21:07;;;;;;;9.83;9.13;;;7.70;99.90;;;;;;4894937;29;20443;-74
2021/01/30 06:23:33;;;;;;;9.97;9.57;;;7.70;99.90;;;;;;4892517;29;20737;-76
2021/01/30 06:26:16;;;;;;;11.43;9.70;;;7.60;99.90;;;;;;4894664;29;20451;-81
2021/01/30 06:28:46;;;;;;;9.70;9.30;;;7.70;99.90;;;;;;4877553;29;20500;-74
2021/01/30 06:31:23;;;;;;;9.60;9.20;;;7.60;99.90;;;;;;4877425;29;20487;-74
2021/01/30 06:33:52;;;;;;;9.70;9.10;;;7.60;99.90;;;;;;4877312;29;20462;-75
2021/01/30 06:36:22;;;;;;;9.20;8.80;;;7.60;99.90;;;;;;4877380;29;20464;-73
2021/01/30 06:38:52;;;;;;;10.07;9.17;;;7.60;99.90;;;;;;4877135;29;20471;-75
2021/01/30 06:41:26;;;;;;;10.23;9.33;;;7.60;99.90;;;;;;4877161;29;20440;-79
2021/01/30 06:44:03;;;;;;;10.37;9.47;;;7.50;99.90;;;;;;4877038;29;20516;-74
2021/01/30 06:46:29;;;;;;;9.90;9.40;;;7.60;99.90;;;;;;4877323;29;20458;-79
2021/01/30 06:48:57;;;;;;;11.10;10.37;;;7.60;99.90;;;;;;4877131;29;20492;-77
2021/01/30 06:51:28;;;;;;;10.27;9.70;;;7.60;99.90;;;;;;4876924;29;20491;-76
2021/01/30 06:53:56;;;;;;;10.20;9.60;;;7.60;99.90;;;;;;4877184;29;20977;-78
2021/01/30 06:56:26;;;;;;;11.27;10.20;;;7.60;99.90;;;;;;4876716;29;20969;-76
2021/01/30 06:59:02;;;;;;;11.27;10.37;;;7.70;99.90;;;;;;4876847;29;20467;-78
2021/01/30 07:01:39;;;;;;;11.77;10.97;;;7.70;99.90;;;;;;4877005;29;20506;-77
2021/01/30 07:04:37;;;;;;;10.40;9.60;;;7.70;99.90;;;;;;4876778;29;20491;-78
2021/01/30 07:07:14;;;;;;;11.90;10.90;;;7.80;99.90;;;;;;4873219;29;20500;-78
2021/01/30 07:09:59;;;;;;;11.27;10.40;;;7.80;99.90;;;;;;4892990;29;20449;-77
2021/01/30 07:12:31;;;;;;;11.07;10.50;;;7.80;99.90;;;;;;4893374;29;20511;-77
2021/01/30 07:15:19;;;;;;;11.10;10.40;;;7.80;99.90;;;;;;4893912;29;20455;-78
2021/01/30 07:18:02;;;;;;;12.77;11.67;;;7.90;99.90;;;;;;4893213;29;20459;-78
2021/01/30 07:20:41;;;;;;;12.97;10.07;;;7.90;99.90;;;;;;4893648;29;21013;-77
2021/01/30 07:23:13;;;;;;;12.17;11.47;;;8.00;99.90;;;;;;4893657;29;20448;-77
2021/01/30 07:25:54;;;;;;;10.93;10.40;;;8.00;99.90;;;;;;4893563;29;20459;-77
2021/01/30 07:28:25;;;;;;;10.93;10.33;;;8.10;99.90;;;;;;4892748;29;20455;-77
2021/01/30 07:30:57;;;;;;;11.70;10.90;;;8.10;99.90;;;;;;4894694;29;21013;-77
2021/01/30 07:33:29;;;;;;;12.83;11.80;;;8.20;99.90;;;;;;4894690;29;20891;-77
2021/01/30 07:36:02;;;;;;;12.17;11.27;;;8.20;99.90;;;;;;4895035;29;20463;-77
2021/01/30 07:38:36;;;;;;;10.37;9.73;;;8.20;99.90;;;;;;4894959;29;20458;-77
2021/01/30 07:41:08;;;;;;;11.60;10.90;;;8.30;99.90;;;;;;4894644;29;20455;-77
2021/01/30 07:43:39;;;;;;;12.00;11.00;;;8.30;99.90;;;;;;4894695;29;20774;-77
2021/01/30 07:46:14;;;;;;;11.23;10.20;;;8.40;99.90;;;;;;4894547;29;21004;-76
2021/01/30 07:48:48;;;;;;;12.10;11.30;;;8.40;99.90;;;;;;4894944;29;20465;-76
2021/01/30 07:51:29;;;;;;;11.20;10.60;;;8.50;99.90;;;;;;4894567;29;20557;-77
2021/01/30 07:53:56;;;;;;;11.30;10.67;;;8.60;99.90;;;;;;4894807;29;20818;-77
2021/01/30 07:56:37;;;;;;;11.87;11.17;;;8.80;99.90;;;;;;4894552;29;20447;-77
2021/01/30 07:59:17;;;;;;;12.20;11.33;;;8.70;99.90;;;;;;4894498;29;20459;-75
2021/01/30 08:01:55;;;;;;;13.80;11.47;;;8.70;99.90;;;;;;4894537;29;20494;-78
2021/01/30 08:04:53;;;;;;;12.43;11.63;;;8.80;99.90;;;;;;4894306;29;20476;-77
2021/01/30 08:07:33;;;;;;;11.07;10.33;;;8.80;99.90;;;;;;4894233;29;20491;-77
2021/01/30 08:10:05;;;;;;;12.33;11.43;;;8.90;99.90;;;;;;4894590;29;20506;-78
2021/01/30 08:12:45;;;;;;;12.20;11.20;;;9.00;99.90;;;;;;4894977;29;20475;-78
2021/01/30 08:15:20;;;;;;;11.57;10.77;;;9.00;99.90;;;;;;4905168;29;20525;-77
2021/01/30 08:17:56;;;;;;;10.77;9.90;;;9.10;99.90;;;;;;4900711;29;20457;-77
2021/01/30 08:20:29;;;;;;;12.13;11.03;;;9.10;99.90;;;;;;4894301;29;20459;-77
2021/01/30 08:23:02;;;;;;;12.23;11.00;;;9.20;99.90;;;;;;4875893;29;20467;-76
2021/01/30 08:25:35;;;;;;;15.33;14.03;;;9.10;99.90;;;;;;4875832;29;20465;-76
2021/01/30 08:28:09;;;;;;;11.03;10.23;;;9.10;99.90;;;;;;4875772;29;20818;-74
2021/01/30 08:30:40;;;;;;;11.90;11.10;;;9.00;99.90;;;;;;4900511;29;20514;-76
2021/01/30 08:33:07;;;;;;;12.10;10.80;;;9.00;99.90;;;;;;4913270;29;20462;-76
2021/01/30 08:35:41;;;;;;;11.77;10.73;;;9.10;99.90;;;;;;4913171;29;20732;-76
2021/01/30 08:38:09;;;;;;;13.20;12.03;;;9.20;99.90;;;;;;4913181;29;20517;-74
2021/01/30 08:40:50;;;;;;;12.17;11.27;;;9.10;99.90;;;;;;4914705;29;20487;-76
2021/01/30 08:43:23;;;;;;;12.13;10.97;;;9.00;99.90;;;;;;4914311;29;20500;-77
2021/01/30 08:45:51;;;;;;;10.90;10.13;;;9.00;99.90;;;;;;4916098;29;20463;-76
2021/01/30 08:48:38;;;;;;;11.97;11.00;;;9.10;99.90;;;;;;4898551;29;20958;-76
2021/01/30 08:51:18;;;;;;;11.93;10.00;;;9.10;99.90;;;;;;4891009;29;20892;-76
2021/01/30 08:53:45;;;;;;;10.67;9.97;;;9.20;99.90;;;;;;4897293;29;20516;-76
2021/01/30 08:56:48;;;;;;;11.97;11.07;;;9.30;99.90;;;;;;4897580;29;20463;-76
2021/01/30 08:59:40;;;;;;;13.57;11.60;;;9.20;99.90;;;;;;4897280;29;20454;-76
2021/01/30 09:02:08;;;;;;;12.60;11.63;;;9.30;99.90;;;;;;4896992;29;20822;-76
2021/01/30 09:04:45;;;;;;;12.17;10.97;;;9.30;99.90;;;;;;4896728;29;20813;-76
2021/01/30 09:07:37;;;;;;;11.50;10.70;;;9.30;99.90;;;;;;4896934;29;20550;-76
2021/01/30 09:10:29;;;;;;;11.57;10.43;;;9.20;99.90;;;;;;4896937;29;20559;-77
2021/01/30 09:12:58;;;;;;;10.20;9.23;;;9.20;99.90;;;;;;4897062;29;20556;-76
2021/01/30 09:15:58;;;;;;;12.43;11.40;;;9.20;99.90;;;;;;4897002;29;20458;-76
2021/01/30 09:18:54;;;;;;;12.27;11.00;;;9.30;99.90;;;;;;4892868;29;20463;-75
2021/01/30 09:21:35;;;;;;;11.07;10.10;;;9.30;99.90;;;;;;4897636;29;20541;-75
2021/01/30 09:24:26;;;;;;;13.43;11.23;;;9.30;99.90;;;;;;4915674;29;20803;-75
2021/01/30 09:27:03;;;;;;;11.10;10.33;;;9.30;99.90;;;;;;4915436;29;20467;-75
2021/01/30 09:29:36;;;;;;;12.67;11.17;;;9.50;99.90;;;;;;4915645;29;20977;-75
2021/01/30 09:32:02;;;;;;;12.00;11.20;;;9.50;99.90;;;;;;4915390;29;20456;-74
2021/01/30 09:34:32;;;;;;;12.57;11.30;;;9.60;99.90;;;;;;4915485;29;20459;-76
2021/01/30 09:36:59;;;;;;;12.67;10.53;;;9.60;99.90;;;;;;4915469;29;20455;-75
2021/01/30 09:39:28;;;;;;;11.03;10.10;;;9.70;99.90;;;;;;4915285;29;20466;-75
2021/01/30 09:42:07;;;;;;;11.53;10.60;;;9.60;99.90;;;;;;4915751;29;20831;-76
2021/01/30 09:44:33;;;;;;;12.17;11.27;;;9.60;99.90;;;;;;4915919;29;20458;-75
2021/01/30 09:47:04;;;;;;;11.40;10.73;;;9.60;99.90;;;;;;4915721;29;20466;-76
2021/01/30 09:49:43;;;;;;;11.10;10.27;;;9.70;99.90;;;;;;4915700;29;20446;-75
2021/01/30 09:52:11;;;;;;;12.10;10.50;;;9.90;99.90;;;;;;4915320;29;20506;-76
2021/01/30 09:54:37;;;;;;;12.43;11.13;;;10.10;99.90;;;;;;4915354;29;20451;-75
2021/01/30 09:57:06;;;;;;;11.77;10.87;;;10.20;99.90;;;;;;4915412;29;20465;-75
2021/01/30 09:59:32;;;;;;;11.33;10.63;;;10.10;99.90;;;;;;4915384;29;20465;-75
2021/01/30 10:02:10;;;;;;;16.83;12.00;;;10.10;99.90;;;;;;4915558;29;20454;-75
2021/01/30 10:04:37;;;;;;;12.37;11.13;;;9.90;99.90;;;;;;4915370;29;20477;-76
2021/01/30 10:07:09;;;;;;;11.80;10.67;;;10.00;99.90;;;;;;4915020;29;20490;-75
2021/01/30 10:09:41;;;;;;;12.23;10.40;;;10.20;99.90;;;;;;4915102;29;20459;-75
2021/01/30 10:12:07;;;;;;;11.03;10.13;;;10.40;99.90;;;;;;4915048;29;20454;-76
2021/01/30 10:14:36;;;;;;;12.87;10.80;;;10.70;99.90;;;;;;4914979;29;20965;-75
2021/01/30 10:17:16;;;;;;;12.47;11.07;;;10.80;99.90;;;;;;4915201;29;20843;-75
2021/01/30 10:19:43;;;;;;;11.87;10.97;;;10.80;99.90;;;;;;4915336;29;20985;-75
2021/01/30 10:22:15;;;;;;;10.37;9.43;;;10.90;99.90;;;;;;4899408;29;20452;-75
2021/01/30 10:24:43;;;;;;;12.43;11.37;;;11.10;99.90;;;;;;4896364;29;20466;-75
2021/01/30 10:27:14;;;;;;;15.10;12.07;;;11.50;99.90;;;;;;4896150;29;20451;-76
2021/01/30 10:29:41;;;;;;;13.10;11.93;;;11.60;99.90;;;;;;4896222;29;20455;-77
2021/01/30 10:32:12;;;;;;;13.50;12.10;;;11.60;99.90;;;;;;4895954;29;20505;-76
2021/01/30 10:34:41;;;;;;;14.33;11.83;;;12.00;99.90;;;;;;4896028;29;20459;-75
2021/01/30 10:37:17;;;;;;;13.33;12.00;;;11.90;99.90;;;;;;4895932;29;20965;-76
2021/01/30 10:39:48;;;;;;;12.60;11.50;;;11.90;99.90;;;;;;4895992;29;20459;-75
2021/01/30 10:42:19;;;;;;;11.27;10.03;;;11.60;99.90;;;;;;4895975;29;20459;-74
2021/01/30 10:44:49;;;;;;;11.40;10.70;;;11.40;99.90;;;;;;4895916;29;20463;-75
2021/01/30 10:47:21;;;;;;;12.07;11.03;;;11.20;99.90;;;;;;4895868;29;20511;-76
2021/01/30 10:49:48;;;;;;;11.13;10.30;;;11.10;99.90;;;;;;4895582;29;20455;-74
2021/01/30 10:52:22;;;;;;;12.80;9.97;;;11.00;99.90;;;;;;4895854;29;20462;-75
2021/01/30 10:54:49;;;;;;;13.37;12.30;;;11.10;99.90;;;;;;4895597;29;20455;-74
2021/01/30 10:57:28;;;;;;;11.17;10.47;;;11.20;99.90;;;;;;4895571;29;20470;-75
2021/01/30 10:59:57;;;;;;;10.83;10.27;;;11.00;99.90;;;;;;4895715;29;20478;-75
2021/01/30 11:02:43;;;;;;;11.43;10.30;;;10.90;99.90;;;;;;4895023;29;20491;-75
2021/01/30 11:05:23;;;;;;;13.23;11.97;;;11.10;99.90;;;;;;4895534;29;20581;-76
2021/01/30 11:07:54;;;;;;;12.67;11.53;;;11.00;99.90;;;;;;4895315;29;20558;-75
2021/01/30 11:10:25;;;;;;;10.40;9.93;;;10.80;99.90;;;;;;4895475;29;20530;-75
2021/01/30 11:12:52;;;;;;;11.83;11.03;;;10.70;99.90;;;;;;4895444;29;20455;-76
2021/01/30 11:15:21;;;;;;;11.63;10.63;;;10.70;99.90;;;;;;4895175;29;21188;-75
2021/01/30 11:17:48;;;;;;;10.90;10.20;;;10.70;99.90;;;;;;4895327;29;20459;-76
2021/01/30 11:20:38;;;;;;;11.77;10.60;;;10.60;99.90;;;;;;4895751;29;20515;-76
2021/01/30 11:23:05;;;;;;;12.17;11.23;;;10.80;99.90;;;;;;4914240;29;20767;-75
2021/01/30 11:25:36;;;;;;;10.93;10.43;;;10.80;99.90;;;;;;4914008;29;20493;-76
2021/01/30 11:28:03;;;;;;;11.97;11.37;;;10.80;99.90;;;;;;4913997;29;20457;-76
2021/01/30 11:30:29;;;;;;;10.57;9.93;;;10.90;99.90;;;;;;4913982;29;20492;-77
2021/01/30 11:32:57;;;;;;;11.60;11.13;;;10.90;99.90;;;;;;4914334;29;20497;-76
2021/01/30 11:35:27;;;;;;;12.30;11.60;;;11.10;99.90;;;;;;4914165;29;20455;-77
2021/01/30 11:37:57;;;;;;;12.93;11.80;;;11.20;99.90;;;;;;4914127;29;20454;-77
2021/01/30 11:40:24;;;;;;;13.17;12.00;;;11.30;99.90;;;;;;4914196;29;20470;-78
2021/01/30 11:42:50;;;;;;;13.70;12.63;;;11.40;99.90;;;;;;4913964;29;20458;-78
2021/01/30 11:45:17;;;;;;;13.77;12.80;;;11.30;99.90;;;;;;4914043;29;20469;-76
2021/01/30 11:47:43;;;;;;;13.20;12.23;;;11.40;99.90;;;;;;4914169;29;20485;-75
2021/01/30 11:50:10;;;;;;;15.13;14.10;;;11.20;99.90;;;;;;4913877;29;20454;-74
2021/01/30 11:52:36;;;;;;;14.93;13.97;;;11.20;99.90;;;;;;4913800;29;20497;-74
2021/01/30 11:55:03;;;;;;;17.33;16.43;;;11.20;99.90;;;;;;4913868;29;20486;-75
2021/01/30 11:57:31;;;;;;;15.73;14.97;;;11.00;99.90;;;;;;4914023;29;20588;-76
2021/01/30 11:59:57;;;;;;;17.40;16.57;;;10.80;99.90;;;;;;4914116;29;20486;-74
2021/01/30 12:02:29;;;;;;;17.50;16.40;;;10.70;99.90;;;;;;4913905;29;20508;-76
2021/01/30 12:04:55;;;;;;;18.27;17.37;;;10.60;99.90;;;;;;4914024;29;20478;-76
2021/01/30 12:07:21;;;;;;;20.10;18.83;;;10.60;99.90;;;;;;4913498;29;21017;-74
2021/01/30 12:09:48;;;;;;;22.80;21.20;;;10.30;99.90;;;;;;4913619;29;20989;-75
2021/01/30 12:12:14;;;;;;;25.70;23.63;;;10.00;99.90;;;;;;4913660;29;20493;-74
2021/01/30 12:14:41;;;;;;;22.43;21.03;;;9.80;99.90;;;;;;4915789;29;20457;-76
2021/01/30 12:17:09;;;;;;;21.90;20.70;;;9.70;99.90;;;;;;4917275;29;20831;-75
2021/01/30 12:19:35;;;;;;;23.10;21.90;;;9.80;99.90;;;;;;4917255;29;20465;-74
2021/01/30 12:22:01;;;;;;;23.77;22.17;;;9.80;99.90;;;;;;4902971;29;20451;-74
2021/01/30 12:24:27;;;;;;;25.43;23.70;;;9.70;99.90;;;;;;4898516;29;20480;-75
2021/01/30 12:26:53;;;;;;;24.13;22.70;;;9.40;99.90;;;;;;4898566;29;20455;-74
2021/01/30 12:29:19;;;;;;;25.30;23.93;;;9.30;99.90;;;;;;4898186;29;20455;-74
2021/01/30 12:31:46;;;;;;;24.43;23.17;;;9.20;99.90;;;;;;4897982;29;21006;-73
2021/01/30 12:34:13;;;;;;;23.23;21.70;;;9.10;99.90;;;;;;4898477;29;20462;-73
2021/01/30 12:36:39;;;;;;;24.30;22.30;;;9.10;99.90;;;;;;4898280;29;20814;-73
2021/01/30 12:39:06;;;;;;;22.27;21.37;;;8.90;99.90;;;;;;4898251;29;20557;-73
2021/01/30 12:41:32;;;;;;;23.00;21.60;;;8.80;99.90;;;;;;4898165;29;20451;-73
2021/01/30 12:43:58;;;;;;;22.57;21.20;;;8.60;99.90;;;;;;4898210;29;20455;-73
2021/01/30 12:46:24;;;;;;;22.70;21.60;;;8.60;99.90;;;;;;4897977;29;20451;-73
2021/01/30 12:48:51;;;;;;;23.77;22.40;;;8.50;99.90;;;;;;4897909;29;21207;-73
2021/01/30 12:51:17;;;;;;;22.80;21.43;;;8.50;99.90;;;;;;4897708;29;20499;-73
2021/01/30 12:53:43;;;;;;;22.47;21.00;;;8.60;99.90;;;;;;4897428;29;20552;-73
2021/01/30 12:56:09;;;;;;;23.13;21.20;;;8.60;99.90;;;;;;4895574;29;20459;-73
2021/01/30 12:58:36;;;;;;;24.67;22.30;;;8.60;99.90;;;;;;4897246;29;20474;-73
2021/01/30 13:01:03;;;;;;;22.27;21.13;;;8.70;99.90;;;;;;4897113;29;20538;-72
2021/01/30 13:03:29;;;;;;;21.73;20.53;;;8.70;99.90;;;;;;4897170;29;20455;-72
2021/01/30 13:05:56;;;;;;;23.10;21.60;;;8.60;99.90;;;;;;4897249;29;20455;-72
2021/01/30 13:08:23;;;;;;;21.97;20.47;;;8.50;99.90;;;;;;4896708;29;20527;-72
2021/01/30 13:10:49;;;;;;;22.20;20.93;;;8.50;99.90;;;;;;4896744;29;20837;-72
2021/01/30 13:13:16;;;;;;;21.50;20.30;;;8.40;99.90;;;;;;4896846;29;20463;-73
2021/01/30 13:15:42;;;;;;;21.07;19.77;;;8.40;99.90;;;;;;4897225;29;20475;-72
2021/01/30 13:18:08;;;;;;;22.00;20.90;;;8.40;99.90;;;;;;4896848;29;20460;-72
2021/01/30 13:20:35;;;;;;;22.73;21.13;;;8.40;99.90;;;;;;4899679;29;20451;-72
2021/01/30 13:23:02;;;;;;;21.77;20.57;;;8.40;99.90;;;;;;4915575;29;20455;-72
2021/01/30 13:25:29;;;;;;;23.97;22.37;;;8.30;99.90;;;;;;4915171;29;20454;-72
2021/01/30 13:27:55;;;;;;;24.10;22.60;;;8.30;99.90;;;;;;4915639;29;20950;-72
2021/01/30 13:30:26;;;;;;;23.90;22.60;;;8.40;99.90;;;;;;4915472;29;21018;-73
2021/01/30 13:32:54;;;;;;;25.50;23.90;;;8.40;99.90;;;;;;4915319;29;20466;-72
2021/01/30 13:35:26;;;;;;;24.17;23.10;;;8.40;99.90;;;;;;4915594;29;20451;-72
2021/01/30 13:37:52;;;;;;;24.63;23.40;;;8.40;99.90;;;;;;4915545;29;20451;-73
2021/01/30 13:40:20;;;;;;;25.77;24.30;;;8.40;99.90;;;;;;4915504;29;20454;-73
2021/01/30 13:42:46;;;;;;;25.17;23.13;;;8.30;99.90;;;;;;4915449;29;20451;-73
2021/01/30 13:45:13;;;;;;;24.77;23.17;;;8.30;99.90;;;;;;4915562;29;20514;-72
2021/01/30 13:47:40;;;;;;;25.97;23.63;;;8.20;99.90;;;;;;4915128;29;20486;-73
2021/01/30 13:50:08;;;;;;;22.23;20.53;;;8.20;99.90;;;;;;4915097;29;20454;-73
2021/01/30 13:52:34;;;;;;;20.40;19.30;;;8.20;99.90;;;;;;4915394;29;20458;-73
2021/01/30 13:55:01;;;;;;;22.07;21.27;;;8.10;99.90;;;;;;4915167;29;20957;-73
2021/01/30 13:57:28;;;;;;;21.80;20.63;;;8.10;99.90;;;;;;4915291;29;20457;-73
2021/01/30 13:59:54;;;;;;;20.97;19.83;;;8.10;99.90;;;;;;4915100;29;20829;-73
2021/01/30 14:02:20;;;;;;;20.60;19.70;;;8.10;99.90;;;;;;4914896;29;20477;-73
2021/01/30 14:04:46;;;;;;;21.13;20.10;;;8.00;99.90;;;;;;4914839;29;20478;-73
2021/01/30 14:07:12;;;;;;;19.93;19.10;;;8.00;99.90;;;;;;4914970;29;20490;-73
2021/01/30 14:09:38;;;;;;;19.77;18.80;;;8.00;99.90;;;;;;4915066;29;20510;-73
2021/01/30 14:12:06;;;;;;;19.83;18.83;;;8.00;99.90;;;;;;4914852;29;20494;-73
2021/01/30 14:14:33;;;;;;;19.90;18.90;;;8.00;99.90;;;;;;4914747;29;20553;-73
2021/01/30 14:17:00;;;;;;;20.37;19.50;;;8.00;99.90;;;;;;4914934;29;20454;-74
2021/01/30 14:19:26;;;;;;;17.93;17.10;;;8.00;99.90;;;;;;4914984;29;20470;-73
2021/01/30 14:21:55;;;;;;;19.40;18.60;;;7.90;99.90;;;;;;4901408;29;20459;-73
2021/01/30 14:24:21;;;;;;;20.27;19.40;;;7.90;99.90;;;;;;4895792;29;20455;-72
2021/01/30 14:26:48;;;;;;;20.80;19.90;;;7.90;99.90;;;;;;4895735;29;20839;-73
2021/01/30 14:29:15;;;;;;;19.00;18.10;;;7.90;99.90;;;;;;4895895;29;20459;-73
2021/01/30 14:31:41;;;;;;;19.57;18.57;;;7.90;99.90;;;;;;4895892;29;20498;-73
2021/01/30 14:34:09;;;;;;;19.53;18.73;;;7.90;99.90;;;;;;4895595;29;20451;-73
2021/01/30 14:36:35;;;;;;;20.70;19.77;;;7.90;99.90;;;;;;4895495;29;20800;-73
2021/01/30 14:39:01;;;;;;;21.10;19.90;;;7.90;99.90;;;;;;4894719;29;20463;-73
2021/01/30 14:41:28;;;;;;;21.00;20.00;;;7.90;99.90;;;;;;4895917;29;20535;-73
2021/01/30 14:43:54;;;;;;;19.07;18.40;;;7.80;99.90;;;;;;4895617;29;20519;-73
2021/01/30 14:46:20;;;;;;;22.30;20.17;;;7.70;99.90;;;;;;4895688;29;20878;-76
2021/01/30 14:48:47;;;;;;;20.40;19.50;;;7.80;99.90;;;;;;4895332;29;20474;-75
2021/01/30 14:51:14;;;;;;;20.23;18.60;;;7.80;99.90;;;;;;4895178;29;20506;-74
2021/01/30 14:53:40;;;;;;;20.70;19.50;;;7.80;99.90;;;;;;4895418;29;20466;-75
2021/01/30 14:56:06;;;;;;;20.17;19.37;;;7.80;99.90;;;;;;4895304;29;20462;-73
2021/01/30 14:58:32;;;;;;;20.67;19.70;;;7.70;99.90;;;;;;4895119;29;20460;-75
2021/01/30 15:00:58;;;;;;;20.30;19.50;;;7.70;99.90;;;;;;4895125;29;20447;-73
2021/01/30 15:03:24;;;;;;;21.17;19.77;;;7.60;99.90;;;;;;4895163;29;20821;-74
2021/01/30 15:05:51;;;;;;;20.30;19.43;;;7.60;99.90;;;;;;4895079;29;20455;-73
2021/01/30 15:08:18;;;;;;;20.70;19.90;;;7.60;99.90;;;;;;4894980;29;20517;-74
2021/01/30 15:10:44;;;;;;;20.33;19.47;;;7.60;99.90;;;;;;4895175;29;20495;-74
2021/01/30 15:13:10;;;;;;;20.90;19.50;;;7.50;99.90;;;;;;4895236;29;20965;-74
2021/01/30 15:15:37;;;;;;;21.73;20.83;;;7.60;99.90;;;;;;4894953;29;20511;-74
2021/01/30 15:18:04;;;;;;;21.70;20.50;;;7.50;99.90;;;;;;4894897;29;20463;-73
2021/01/30 15:20:30;;;;;;;22.37;20.73;;;7.50;99.90;;;;;;4897351;29;20559;-73
2021/01/30 15:22:57;;;;;;;21.50;20.40;;;7.60;99.90;;;;;;4914035;29;20820;-73
2021/01/30 15:25:23;;;;;;;23.93;22.40;;;7.50;99.90;;;;;;4913812;29;21162;-73
2021/01/30 15:27:50;;;;;;;21.73;20.90;;;7.50;99.90;;;;;;4913582;29;20461;-73
2021/01/30 15:30:19;;;;;;;21.43;20.33;;;7.50;99.90;;;;;;4913567;29;20459;-73
2021/01/30 15:32:45;;;;;;;21.30;20.30;;;7.50;99.90;;;;;;4913743;29;20839;-72
2021/01/30 15:35:12;;;;;;;20.27;19.37;;;7.50;99.90;;;;;;4913867;29;20454;-72
2021/01/30 15:37:38;;;;;;;21.10;20.00;;;7.40;99.90;;;;;;4913656;29;20517;-73
2021/01/30 15:40:07;;;;;;;21.70;20.80;;;7.50;99.90;;;;;;4913374;29;20458;-74
2021/01/30 15:42:33;;;;;;;20.90;19.80;;;7.40;99.90;;;;;;4913528;29;20568;-73
2021/01/30 15:45:00;;;;;;;23.27;22.23;;;7.50;99.90;;;;;;4913578;29;20462;-73
2021/01/30 15:47:26;;;;;;;23.30;21.93;;;7.40;99.90;;;;;;4913873;29;20949;-73
2021/01/30 15:49:52;;;;;;;23.20;21.57;;;7.40;99.90;;;;;;4915877;29;20865;-73
2021/01/30 15:52:21;;;;;;;21.20;20.30;;;7.30;99.90;;;;;;4917303;29;20681;-74
2021/01/30 15:54:47;;;;;;;21.23;20.33;;;7.30;99.90;;;;;;4917285;29;20517;-73
2021/01/30 15:57:14;;;;;;;21.80;20.80;;;7.30;99.90;;;;;;4917459;29;20460;-75
2021/01/30 15:59:41;;;;;;;22.53;21.17;;;7.30;99.90;;;;;;4917642;29;20497;-75
2021/01/30 16:02:07;;;;;;;20.83;19.73;;;7.30;99.90;;;;;;4917260;29;20477;-75
2021/01/30 16:04:33;;;;;;;22.33;21.27;;;7.30;99.90;;;;;;4916934;29;20557;-75
2021/01/30 16:06:59;;;;;;;22.03;21.07;;;7.20;99.90;;;;;;4917018;29;20500;-76
2021/01/30 16:09:25;;;;;;;21.00;20.17;;;7.10;99.90;;;;;;4917337;29;20462;-76
2021/01/30 16:11:51;;;;;;;20.60;19.40;;;7.10;99.90;;;;;;4916919;29;20497;-76
2021/01/30 16:14:18;;;;;;;20.40;19.50;;;7.10;99.90;;;;;;4917026;29;20827;-75
2021/01/30 16:16:45;;;;;;;20.27;19.37;;;7.00;99.90;;;;;;4917059;29;20465;-76
2021/01/30 16:19:12;;;;;;;21.00;20.10;;;6.90;99.90;;;;;;4917075;29;20458;-75
2021/01/30 16:21:41;;;;;;;20.10;19.30;;;6.90;99.90;;;;;;4905398;29;20448;-75
2021/01/30 16:24:09;;;;;;;19.10;18.30;;;6.90;99.90;;;;;;4898146;29;20465;-75
2021/01/30 16:26:35;;;;;;;19.67;18.67;;;6.80;99.90;;;;;;4896651;29;20459;-75
2021/01/30 16:29:01;;;;;;;19.20;18.50;;;6.80;99.90;;;;;;4896551;29;20459;-76
2021/01/30 16:31:28;;;;;;;19.63;18.80;;;6.80;99.90;;;;;;4896725;29;20493;-76
2021/01/30 16:33:55;;;;;;;18.90;18.10;;;6.70;99.90;;;;;;4896539;29;20464;-76
2021/01/30 16:36:21;;;;;;;20.10;19.10;;;6.70;99.90;;;;;;4896318;29;20473;-74
2021/01/30 16:38:47;;;;;;;20.50;19.60;;;6.70;99.90;;;;;;4896332;29;20463;-75
2021/01/30 16:41:13;;;;;;;19.40;18.60;;;6.70;99.90;;;;;;4896592;29;20444;-75
2021/01/30 16:43:39;;;;;;;19.87;19.07;;;6.70;99.90;;;;;;4896465;29;20458;-76
2021/01/30 16:46:06;;;;;;;19.33;18.53;;;6.70;99.90;;;;;;4896667;29;20455;-76
2021/01/30 16:48:33;;;;;;;19.50;18.60;;;6.70;99.90;;;;;;4896323;29;20455;-77
2021/01/30 16:50:59;;;;;;;19.83;18.90;;;6.60;99.90;;;;;;4896303;29;20845;-76
2021/01/30 16:53:26;;;;;;;21.00;20.00;;;6.70;99.90;;;;;;4896429;29;20827;-76
2021/01/30 16:55:52;;;;;;;20.30;19.23;;;6.80;99.90;;;;;;4896238;29;20459;-76
2021/01/30 16:58:19;;;;;;;21.67;20.63;;;6.80;99.90;;;;;;4896051;29;20452;-77
2021/01/30 17:00:48;;;;;;;21.20;20.30;;;6.90;99.90;;;;;;4895114;29;20482;-76
2021/01/30 17:03:14;;;;;;;22.77;21.70;;;7.00;99.90;;;;;;4896145;29;20502;-76
2021/01/30 17:05:43;;;;;;;22.87;21.80;;;7.00;99.90;;;;;;4897046;29;20943;-75
2021/01/30 17:08:10;;;;;;;22.10;21.10;;;7.10;99.90;;;;;;4897140;29;21362;-76
2021/01/30 17:10:36;;;;;;;20.23;19.30;;;7.10;99.90;;;;;;4897203;29;20462;-75
2021/01/30 17:13:02;;;;;;;24.30;23.00;;;7.10;99.90;;;;;;4897030;29;21149;-74
2021/01/30 17:15:29;;;;;;;22.70;21.80;;;7.00;99.90;;;;;;4897419;29;20462;-74
2021/01/30 17:17:55;;;;;;;22.73;21.63;;;7.20;99.90;;;;;;4896951;29;20447;-74
2021/01/30 17:20:22;;;;;;;21.53;20.63;;;7.20;99.90;;;;;;4897020;29;20455;-74
2021/01/30 17:22:48;;;;;;;22.30;21.30;;;7.20;99.90;;;;;;4895885;29;20479;-74
2021/01/30 17:25:17;;;;;;;20.43;19.60;;;7.30;99.90;;;;;;4895665;29;20454;-74
2021/01/30 17:27:43;;;;;;;22.90;21.80;;;7.40;99.90;;;;;;4895642;29;20517;-74
2021/01/30 17:30:11;;;;;;;22.90;21.80;;;7.30;99.90;;;;;;4893026;29;20443;-74
2021/01/30 17:32:37;;;;;;;24.70;23.40;;;7.40;99.90;;;;;;4895522;29;20514;-74
2021/01/30 17:35:04;;;;;;;24.43;23.33;;;7.40;99.90;;;;;;4895411;29;20868;-75
2021/01/30 17:37:30;;;;;;;24.00;22.80;;;7.40;99.90;;;;;;4892852;29;20459;-75
2021/01/30 17:39:57;;;;;;;23.30;22.13;;;7.30;99.90;;;;;;4895408;29;20462;-75
2021/01/30 17:42:23;;;;;;;24.37;23.37;;;7.40;99.90;;;;;;4895385;29;20478;-75
2021/01/30 17:44:50;;;;;;;24.90;23.70;;;7.40;99.90;;;;;;4892525;29;20459;-75
2021/01/30 17:47:16;;;;;;;24.00;22.90;;;7.30;99.90;;;;;;4895953;29;20459;-74
2021/01/30 17:49:43;;;;;;;26.03;24.63;;;7.40;99.90;;;;;;4896584;29;20486;-74
2021/01/30 17:52:09;;;;;;;23.90;22.63;;;7.40;99.90;;;;;;4896418;29;21089;-74
2021/01/30 17:54:36;;;;;;;23.00;21.80;;;7.30;99.90;;;;;;4896338;29;20459;-75
2021/01/30 17:57:03;;;;;;;23.30;22.23;;;7.10;99.90;;;;;;4896111;29;20970;-75